| time (UTC) | temp C | wind direction | speed KPH | gust KPH | rain 1hr cm | rain 24hr cm | rain mn cm | humidity % | barometer mb |
| 20260508013530 | 18 | 253 | 12.9 | 16.1 | 0.00 | 0.00 | 0.00 | 84 | 1014.9 |
| 20260508013028 | 18 | 219 | 3.2 | 4.8 | 0.00 | 0.00 | 0.00 | 84 | 1014.6 |
| 20260508012525 | 17 | 240 | 9.7 | 12.9 | 0.00 | 0.00 | 0.00 | 87 | 1014.9 |
| 20260508012022 | 17 | 240 | 14.5 | 20.9 | 0.00 | 0.00 | 0.00 | 88 | 1014.6 |
| 20260508011520 | 17 | 257 | 16.1 | 17.7 | 0.00 | 0.00 | 0.00 | 87 | 1014.9 |
| 20260508011017 | 18 | 244 | 11.3 | 14.5 | 0.00 | 0.00 | 0.00 | 87 | 1014.6 |
| 20260508010514 | 18 | 266 | 9.7 | 11.3 | 0.00 | 0.00 | 0.00 | 87 | 1014.9 |
| 20260508010012 | 18 | 232 | 0.0 | 0.0 | 0.00 | 0.00 | 0.00 | 87 | 1014.6 |
| 20260508005508 | 18 | 224 | 11.3 | 14.5 | 0.00 | 0.00 | 0.00 | 87 | 1014.9 |
| 20260508005005 | 18 | 241 | 8.0 | 11.3 | 0.00 | 0.00 | 0.00 | 87 | 1014.6 |
| 20260508004501 | 18 | 234 | 9.7 | 14.5 | 0.00 | 0.00 | 0.00 | 85 | 1014.6 |
| 20260508003958 | 18 | 270 | 9.7 | 11.3 | 0.00 | 0.00 | 0.00 | 86 | 1014.9 |
| 20260508003454 | 18 | 261 | 8.0 | 11.3 | 0.00 | 0.00 | 0.00 | 85 | 1014.6 |
| 20260508002952 | 18 | 238 | 11.3 | 16.1 | 0.00 | 0.00 | 0.00 | 85 | 1014.9 |
| 20260508002448 | 18 | 264 | 11.3 | 14.5 | 0.00 | 0.00 | 0.00 | 85 | 1014.9 |
| 20260508001944 | 18 | 197 | 9.7 | 12.9 | 0.00 | 0.00 | 0.00 | 85 | 1014.9 |
| 20260508001440 | 18 | 220 | 8.0 | 9.7 | 0.00 | 0.00 | 0.00 | 85 | 1014.9 |
| 20260508000937 | 18 | 244 | 14.5 | 17.7 | 0.00 | 0.00 | 0.00 | 84 | 1014.9 |
| 20260508000434 | 18 | 256 | 12.9 | 17.7 | 0.00 | 0.00 | 0.00 | 84 | 1014.6 |
| 20260507235930 | 18 | 217 | 19.3 | 25.7 | 0.00 | 0.00 | 0.00 | 85 | 1014.6 |
| 20260507235427 | 19 | 250 | 11.3 | 12.9 | 0.00 | 0.00 | 0.00 | 85 | 1014.6 |
| 20260507234924 | 18 | 230 | 11.3 | 16.1 | 0.00 | 0.00 | 0.00 | 86 | 1014.9 |
| 20260507234421 | 19 | 255 | 16.1 | 22.5 | 0.00 | 0.00 | 0.00 | 84 | 1014.6 |
| 20260507233917 | 18 | 220 | 17.7 | 22.5 | 0.00 | 0.00 | 0.00 | 85 | 1014.9 |
| 20260507233414 | 19 | 218 | 16.1 | 22.5 | 0.00 | 0.00 | 0.00 | 85 | 1014.9 |
| 20260507232913 | 19 | 240 | 9.7 | 16.1 | 0.00 | 0.00 | 0.00 | 85 | 1014.9 |
| 20260507232409 | 19 | 216 | 12.9 | 16.1 | 0.00 | 0.00 | 0.00 | 86 | 1014.9 |
| 20260507231906 | 18 | 230 | 11.3 | 17.7 | 0.00 | 0.00 | 0.00 | 85 | 1014.9 |
| 20260507231403 | 19 | 221 | 19.3 | 22.5 | 0.00 | 0.00 | 0.00 | 84 | 1014.9 |
| 20260507230859 | 19 | 249 | 12.9 | 16.1 | 0.00 | 0.00 | 0.00 | 84 | 1014.9 |
| 20260507230357 | 19 | 248 | 14.5 | 16.1 | 0.00 | 0.00 | 0.00 | 83 | 1014.9 |
| 20260507225856 | 19 | 223 | 17.7 | 27.4 | 0.00 | 0.00 | 0.00 | 83 | 1014.9 |
| 20260507225353 | 19 | 248 | 12.9 | 20.9 | 0.00 | 0.00 | 0.00 | 84 | 1014.9 |
| 20260507224849 | 20 | 264 | 17.7 | 20.9 | 0.00 | 0.00 | 0.00 | 82 | 1014.9 |
| 20260507224346 | 19 | 233 | 9.7 | 14.5 | 0.00 | 0.00 | 0.00 | 83 | 1014.9 |
| 20260507223841 | 19 | 225 | 17.7 | 20.9 | 0.00 | 0.00 | 0.00 | 84 | 1014.9 |
| 20260507223338 | 20 | 218 | 4.8 | 8.0 | 0.00 | 0.00 | 0.00 | 82 | 1014.9 |
| 20260507222835 | 19 | 225 | 9.7 | 11.3 | 0.00 | 0.00 | 0.00 | 83 | 1015.2 |
| 20260507222331 | 20 | 258 | 14.5 | 29.0 | 0.00 | 0.00 | 0.00 | 82 | 1015.2 |
| 20260507221829 | 18 | 206 | 9.7 | 14.5 | 0.00 | 0.00 | 0.00 | 84 | 1015.2 |
| 20260507221325 | 19 | 236 | 20.9 | 24.1 | 0.00 | 0.00 | 0.00 | 82 | 1015.2 |
| 20260507220821 | 20 | 217 | 16.1 | 24.1 | 0.00 | 0.00 | 0.00 | 82 | 1015.2 |
| 20260507220320 | 19 | 209 | 11.3 | 12.9 | 0.00 | 0.00 | 0.00 | 81 | 1015.2 |
| 20260507215815 | 19 | 264 | 20.9 | 25.7 | 0.00 | 0.00 | 0.00 | 81 | 1015.2 |
| 20260507215313 | 19 | 263 | 17.7 | 22.5 | 0.00 | 0.00 | 0.00 | 82 | 1015.2 |
| 20260507214810 | 19 | 245 | 11.3 | 14.5 | 0.00 | 0.00 | 0.00 | 82 | 1015.2 |
| 20260507214308 | 19 | 257 | 19.3 | 22.5 | 0.00 | 0.00 | 0.00 | 82 | 1015.6 |
| 20260507213802 | 20 | 179 | 12.9 | 16.1 | 0.00 | 0.00 | 0.00 | 79 | 1015.2 |
| 20260507213259 | 20 | 208 | 9.7 | 14.5 | 0.00 | 0.00 | 0.00 | 79 | 1015.6 |
| 20260507212756 | 20 | 215 | 8.0 | 11.3 | 0.00 | 0.00 | 0.00 | 80 | 1015.6 |
| 20260507212252 | 20 | 222 | 11.3 | 16.1 | 0.00 | 0.00 | 0.00 | 81 | 1015.6 |
| 20260507211749 | 20 | 251 | 14.5 | 16.1 | 0.00 | 0.00 | 0.00 | 80 | 1015.6 |
| 20260507211245 | 20 | 262 | 14.5 | 14.5 | 0.00 | 0.00 | 0.00 | 81 | 1015.9 |
| 20260507210742 | 20 | 238 | 9.7 | 14.5 | 0.00 | 0.00 | 0.00 | 80 | 1015.9 |
| 20260507210239 | 20 | 205 | 8.0 | 12.9 | 0.00 | 0.00 | 0.00 | 82 | 1015.9 |
| 20260507205735 | 19 | 278 | 11.3 | 16.1 | 0.00 | 0.00 | 0.00 | 82 | 1015.6 |
| 20260507205227 | 19 | 239 | 17.7 | 17.7 | 0.00 | 0.00 | 0.00 | 82 | 1015.9 |
| 20260507204723 | 20 | 181 | 11.3 | 12.9 | 0.00 | 0.00 | 0.00 | 81 | 1015.9 |
| 20260507204221 | 20 | 225 | 22.5 | 25.7 | 0.00 | 0.00 | 0.00 | 81 | 1015.9 |
| 20260507203713 | 21 | 270 | 11.3 | 14.5 | 0.00 | 0.00 | 0.00 | 78 | 1015.9 |
| 20260507203210 | 20 | 256 | 6.4 | 9.7 | 0.00 | 0.00 | 0.00 | 78 | 1016.2 |
| 20260507202706 | 20 | 221 | 11.3 | 16.1 | 0.00 | 0.00 | 0.00 | 80 | 1016.2 |
| 20260507202202 | 20 | 258 | 14.5 | 20.9 | 0.00 | 0.00 | 0.00 | 79 | 1016.2 |
| 20260507201657 | 20 | 252 | 12.9 | 16.1 | 0.00 | 0.00 | 0.00 | 78 | 1015.9 |
| 20260507201154 | 20 | 187 | 9.7 | 12.9 | 0.00 | 0.00 | 0.00 | 79 | 1015.9 |
| 20260507200650 | 20 | 151 | 9.7 | 12.9 | 0.00 | 0.00 | 0.00 | 79 | 1016.2 |
| 20260507200146 | 21 | 244 | 12.9 | 14.5 | 0.00 | 0.00 | 0.00 | 78 | 1016.6 |
| 20260507195643 | 20 | 270 | 14.5 | 17.7 | 0.00 | 0.00 | 0.00 | 77 | 1016.2 |
| 20260507195140 | 20 | 276 | 16.1 | 17.7 | 0.00 | 0.00 | 0.00 | 79 | 1016.6 |
| 20260507194637 | 20 | 245 | 11.3 | 12.9 | 0.00 | 0.00 | 0.00 | 80 | 1016.6 |
| 20260507194132 | 20 | 252 | 16.1 | 22.5 | 0.00 | 0.00 | 0.00 | 81 | 1016.6 |
| 20260507193630 | 20 | 254 | 11.3 | 16.1 | 0.00 | 0.00 | 0.00 | 79 | 1016.6 |
| 20260507193127 | 20 | 275 | 16.1 | 17.7 | 0.00 | 0.00 | 0.00 | 80 | 1016.6 |
| 20260507192623 | 21 | 246 | 16.1 | 17.7 | 0.00 | 0.00 | 0.00 | 78 | 1016.6 |
| 20260507192120 | 20 | 219 | 6.4 | 9.7 | 0.00 | 0.00 | 0.00 | 81 | 1016.9 |
| 20260507191616 | 20 | 279 | 16.1 | 17.7 | 0.00 | 0.00 | 0.00 | 79 | 1016.6 |
| 20260507191112 | 20 | 170 | 8.0 | 11.3 | 0.00 | 0.00 | 0.00 | 79 | 1016.6 |
| 20260507190610 | 20 | 245 | 11.3 | 12.9 | 0.00 | 0.00 | 0.00 | 78 | 1016.9 |
| 20260507190109 | 21 | 276 | 14.5 | 17.7 | 0.00 | 0.00 | 0.00 | 77 | 1016.9 |
| 20260507185607 | 21 | 244 | 8.0 | 9.7 | 0.00 | 0.00 | 0.00 | 78 | 1016.9 |
| 20260507185103 | 20 | 264 | 11.3 | 14.5 | 0.00 | 0.00 | 0.00 | 79 | 1016.9 |
| 20260507184601 | 20 | 236 | 0.0 | 1.6 | 0.00 | 0.00 | 0.00 | 79 | 1016.6 |
| 20260507184059 | 20 | 241 | 12.9 | 12.9 | 0.00 | 0.00 | 0.00 | 80 | 1016.9 |
| 20260507183554 | 20 | 244 | 4.8 | 8.0 | 0.00 | 0.00 | 0.00 | 79 | 1016.9 |
| 20260507183051 | 20 | 256 | 11.3 | 12.9 | 0.00 | 0.00 | 0.00 | 79 | 1016.9 |
| 20260507182548 | 20 | 292 | 12.9 | 16.1 | 0.00 | 0.00 | 0.00 | 80 | 1016.9 |
| 20260507182044 | 20 | 305 | 6.4 | 9.7 | 0.00 | 0.00 | 0.00 | 79 | 1016.9 |
| 20260507181541 | 21 | 193 | 6.4 | 8.0 | 0.00 | 0.00 | 0.00 | 77 | 1016.9 |
| 20260507181037 | 20 | 223 | 0.0 | 0.0 | 0.00 | 0.00 | 0.00 | 79 | 1016.9 |
| 20260507180533 | 20 | 274 | 11.3 | 16.1 | 0.00 | 0.00 | 0.00 | 78 | 1016.9 |
| 20260507180031 | 20 | 210 | 4.8 | 9.7 | 0.00 | 0.00 | 0.00 | 81 | 1016.9 |
| 20260507175526 | 20 | 235 | 11.3 | 12.9 | 0.00 | 0.00 | 0.00 | 79 | 1017.3 |
| 20260507175025 | 20 | 203 | 4.8 | 4.8 | 0.00 | 0.00 | 0.00 | 80 | 1017.3 |
| 20260507174521 | 19 | 274 | 8.0 | 11.3 | 0.00 | 0.00 | 0.00 | 82 | 1017.3 |
| 20260507174019 | 19 | 167 | 0.0 | 0.0 | 0.00 | 0.00 | 0.00 | 81 | 1016.9 |
| 20260507173516 | 20 | 265 | 9.7 | 12.9 | 0.00 | 0.00 | 0.00 | 80 | 1016.9 |
| 20260507173014 | 20 | 289 | 3.2 | 11.3 | 0.00 | 0.00 | 0.00 | 79 | 1017.3 |
| 20260507172509 | 20 | 248 | 9.7 | 11.3 | 0.00 | 0.00 | 0.00 | 81 | 1017.3 |
| 20260507172006 | 20 | 214 | 6.4 | 8.0 | 0.00 | 0.00 | 0.00 | 80 | 1017.3 |
| 20260507171501 | 20 | 253 | 1.6 | 3.2 | 0.00 | 0.00 | 0.00 | 80 | 1016.9 |
| 20260507171000 | 20 | 223 | 6.4 | 8.0 | 0.00 | 0.00 | 0.00 | 81 | 1017.3 |
| 20260507170455 | 19 | 186 | 0.0 | 1.6 | 0.00 | 0.00 | 0.00 | 82 | 1016.9 |
| 20260507165952 | 19 | 279 | 0.0 | 0.0 | 0.00 | 0.00 | 0.00 | 82 | 1017.3 |
| 20260507165448 | 19 | 233 | 0.0 | 0.0 | 0.00 | 0.00 | 0.00 | 82 | 1017.3 |
| 20260507164944 | 20 | 239 | 0.0 | 0.0 | 0.00 | 0.00 | 0.00 | 80 | 1016.9 |
| 20260507164441 | 19 | 276 | 1.6 | 4.8 | 0.00 | 0.00 | 0.00 | 81 | 1017.3 |
| 20260507163938 | 20 | 271 | 0.0 | 0.0 | 0.00 | 0.00 | 0.00 | 79 | 1017.3 |
| 20260507163435 | 20 | 206 | 0.0 | 0.0 | 0.00 | 0.00 | 0.00 | 79 | 1017.3 |
| 20260507162932 | 20 | 130 | 0.0 | 0.0 | 0.00 | 0.00 | 0.00 | 80 | 1017.3 |
| 20260507162427 | 20 | 285 | 0.0 | 0.0 | 0.00 | 0.00 | 0.00 | 79 | 1017.3 |
| 20260507161925 | 20 | 342 | 0.0 | 0.0 | 0.00 | 0.00 | 0.00 | 76 | 1017.3 |
| 20260507161420 | 20 | 74 | 0.0 | 0.0 | 0.00 | 0.00 | 0.00 | 78 | 1017.3 |
| 20260507160918 | 20 | 109 | 0.0 | 0.0 | 0.00 | 0.00 | 0.00 | 78 | 1017.3 |
| 20260507160414 | 19 | 215 | 0.0 | 0.0 | 0.00 | 0.00 | 0.00 | 81 | 1017.3 |
| 20260507155910 | 18 | 221 | 0.0 | 0.0 | 0.00 | 0.00 | 0.00 | 82 | 1017.3 |
| 20260507155406 | 18 | 282 | 0.0 | 0.0 | 0.00 | 0.00 | 0.00 | 83 | 1017.3 |
| 20260507154903 | 17 | 228 | 0.0 | 0.0 | 0.00 | 0.00 | 0.00 | 85 | 1017.6 |
| 20260507154400 | 17 | 302 | 0.0 | 0.0 | 0.00 | 0.00 | 0.00 | 86 | 1017.3 |
| 20260507153857 | 17 | 304 | 0.0 | 0.0 | 0.00 | 0.00 | 0.00 | 86 | 1017.3 |
| 20260507153353 | 17 | 283 | 0.0 | 0.0 | 0.00 | 0.00 | 0.00 | 87 | 1017.6 |
| 20260507152850 | 17 | 245 | 0.0 | 0.0 | 0.00 | 0.00 | 0.00 | 88 | 1017.3 |
| 20260507152347 | 17 | 266 | 0.0 | 0.0 | 0.00 | 0.00 | 0.00 | 88 | 1017.3 |
| 20260507151843 | 17 | 250 | 0.0 | 0.0 | 0.00 | 0.00 | 0.00 | 88 | 1017.6 |
| 20260507151339 | 17 | 289 | 0.0 | 0.0 | 0.00 | 0.00 | 0.00 | 89 | 1017.6 |
| 20260507150836 | 16 | 284 | 0.0 | 0.0 | 0.00 | 0.00 | 0.00 | 89 | 1017.6 |
| 20260507150333 | 16 | 258 | 0.0 | 0.0 | 0.00 | 0.00 | 0.00 | 91 | 1017.6 |
| 20260507145828 | 16 | 235 | 0.0 | 0.0 | 0.00 | 0.00 | 0.00 | 90 | 1017.3 |
| 20260507145325 | 16 | 266 | 0.0 | 0.0 | 0.00 | 0.00 | 0.00 | 91 | 1017.6 |
| 20260507144822 | 16 | 293 | 0.0 | 0.0 | 0.00 | 0.00 | 0.00 | 92 | 1017.3 |
| 20260507144320 | 16 | 276 | 0.0 | 0.0 | 0.00 | 0.00 | 0.00 | 91 | 1017.6 |
| 20260507143816 | 16 | 265 | 0.0 | 0.0 | 0.00 | 0.00 | 0.00 | 92 | 1017.3 |
| 20260507143313 | 16 | 244 | 0.0 | 0.0 | 0.00 | 0.00 | 0.00 | 92 | 1017.3 |
| 20260507142809 | 15 | 245 | 0.0 | 0.0 | 0.00 | 0.00 | 0.00 | 93 | 1017.3 |
| 20260507142307 | 15 | 246 | 0.0 | 0.0 | 0.00 | 0.00 | 0.00 | 94 | 1017.3 |
| 20260507141803 | 15 | 297 | 0.0 | 0.0 | 0.00 | 0.00 | 0.00 | 94 | 1016.9 |
| 20260507141259 | 15 | 306 | 0.0 | 0.0 | 0.00 | 0.00 | 0.00 | 95 | 1016.9 |
| 20260507140755 | 15 | 331 | 0.0 | 0.0 | 0.00 | 0.00 | 0.00 | 95 | 1017.3 |
| 20260507140247 | 15 | 334 | 0.0 | 0.0 | 0.00 | 0.00 | 0.00 | 96 | 1017.3 |
| 20260507135744 | 14 | 316 | 0.0 | 0.0 | 0.00 | 0.00 | 0.00 | 96 | 1017.3 |
| 20260507135242 | 14 | 328 | 0.0 | 0.0 | 0.00 | 0.00 | 0.00 | 97 | 1017.3 |
| 20260507134738 | 13 | 324 | 0.0 | 0.0 | 0.00 | 0.00 | 0.00 | 97 | 1016.9 |
| 20260507134234 | 13 | 318 | 0.0 | 0.0 | 0.00 | 0.00 | 0.00 | 97 | 1016.9 |
| 20260507133730 | 13 | 315 | 0.0 | 0.0 | 0.00 | 0.00 | 0.00 | 98 | 1016.9 |
| 20260507133227 | 12 | 315 | 0.0 | 0.0 | 0.00 | 0.00 | 0.00 | 98 | 1016.6 |
| 20260507132725 | 12 | 314 | 0.0 | 0.0 | 0.00 | 0.00 | 0.00 | 98 | 1016.6 |
| 20260507132222 | 12 | 311 | 0.0 | 0.0 | 0.00 | 0.00 | 0.00 | 98 | 1016.9 |
| 20260507131718 | 12 | 311 | 0.0 | 0.0 | 0.00 | 0.00 | 0.00 | 98 | 1016.9 |
| 20260507131216 | 12 | 310 | 0.0 | 0.0 | 0.00 | 0.00 | 0.00 | 98 | 1016.9 |
| 20260507130712 | 12 | 310 | 0.0 | 0.0 | 0.00 | 0.00 | 0.00 | 98 | 1016.9 |
| 20260507130210 | 12 | 310 | 0.0 | 0.0 | 0.00 | 0.00 | 0.00 | 98 | 1016.6 |
| 20260507125708 | 12 | 310 | 0.0 | 0.0 | 0.00 | 0.00 | 0.00 | 98 | 1016.6 |
| 20260507125206 | 12 | 310 | 0.0 | 0.0 | 0.00 | 0.00 | 0.00 | 98 | 1016.6 |
| 20260507124701 | 12 | 309 | 0.0 | 0.0 | 0.00 | 0.00 | 0.00 | 98 | 1016.6 |
| 20260507124159 | 12 | 309 | 0.0 | 0.0 | 0.00 | 0.00 | 0.00 | 98 | 1016.6 |
| 20260507123657 | 12 | 309 | 0.0 | 0.0 | 0.00 | 0.00 | 0.00 | 98 | 1016.6 |
| 20260507123154 | 12 | 309 | 0.0 | 0.0 | 0.00 | 0.00 | 0.00 | 98 | 1016.6 |
| 20260507122649 | 12 | 309 | 0.0 | 0.0 | 0.00 | 0.00 | 0.00 | 98 | 1016.6 |
| 20260507122145 | 12 | 309 | 0.0 | 0.0 | 0.00 | 0.00 | 0.00 | 98 | 1016.6 |
| 20260507121642 | 12 | 309 | 0.0 | 0.0 | 0.00 | 0.00 | 0.00 | 98 | 1016.6 |
| 20260507121137 | 12 | 308 | 0.0 | 0.0 | 0.00 | 0.00 | 0.00 | 98 | 1016.6 |
| 20260507120634 | 12 | 307 | 0.0 | 0.0 | 0.00 | 0.00 | 0.00 | 98 | 1016.6 |
| 20260507120131 | 12 | 307 | 0.0 | 0.0 | 0.00 | 0.00 | 0.00 | 98 | 1016.9 |
| 20260507115627 | 12 | 307 | 0.0 | 0.0 | 0.00 | 0.00 | 0.00 | 98 | 1016.6 |
| 20260507115123 | 12 | 306 | 0.0 | 0.0 | 0.00 | 0.00 | 0.00 | 98 | 1016.6 |
| 20260507114619 | 12 | 306 | 0.0 | 0.0 | 0.00 | 0.00 | 0.00 | 98 | 1016.9 |
| 20260507114116 | 12 | 305 | 0.0 | 0.0 | 0.00 | 0.00 | 0.00 | 98 | 1016.6 |
| 20260507113614 | 12 | 305 | 0.0 | 0.0 | 0.00 | 0.00 | 0.00 | 99 | 1016.6 |
| 20260507113110 | 12 | 304 | 0.0 | 0.0 | 0.00 | 0.00 | 0.00 | 98 | 1016.6 |
| 20260507112608 | 12 | 304 | 0.0 | 0.0 | 0.00 | 0.00 | 0.00 | 98 | 1016.6 |
| 20260507112104 | 12 | 303 | 0.0 | 0.0 | 0.00 | 0.00 | 0.00 | 99 | 1016.6 |
| 20260507111602 | 12 | 302 | 0.0 | 0.0 | 0.00 | 0.00 | 0.00 | 98 | 1016.6 |
| 20260507111058 | 13 | 301 | 0.0 | 0.0 | 0.00 | 0.00 | 0.00 | 98 | 1016.9 |
| 20260507110555 | 13 | 300 | 0.0 | 0.0 | 0.00 | 0.00 | 0.00 | 98 | 1016.9 |
| 20260507110051 | 12 | 300 | 0.0 | 0.0 | 0.00 | 0.00 | 0.00 | 98 | 1016.6 |
| 20260507105548 | 12 | 299 | 0.0 | 0.0 | 0.00 | 0.00 | 0.00 | 98 | 1016.9 |
| 20260507105044 | 13 | 298 | 0.0 | 0.0 | 0.00 | 0.00 | 0.00 | 98 | 1016.6 |
| 20260507104542 | 13 | 297 | 0.0 | 0.0 | 0.00 | 0.00 | 0.00 | 98 | 1016.9 |
| 20260507104038 | 13 | 295 | 0.0 | 0.0 | 0.00 | 0.00 | 0.00 | 98 | 1016.9 |
| 20260507103534 | 13 | 295 | 0.0 | 0.0 | 0.00 | 0.00 | 0.00 | 98 | 1017.3 |
| 20260507103031 | 13 | 295 | 0.0 | 0.0 | 0.00 | 0.00 | 0.00 | 98 | 1016.9 |
| 20260507102528 | 13 | 295 | 0.0 | 0.0 | 0.00 | 0.00 | 0.00 | 98 | 1016.9 |
| 20260507102024 | 13 | 294 | 0.0 | 0.0 | 0.00 | 0.00 | 0.00 | 98 | 1017.3 |
| 20260507101519 | 13 | 294 | 0.0 | 0.0 | 0.00 | 0.00 | 0.00 | 98 | 1017.3 |
| 20260507101016 | 13 | 294 | 0.0 | 0.0 | 0.00 | 0.00 | 0.00 | 98 | 1016.9 |
| 20260507100514 | 13 | 294 | 0.0 | 0.0 | 0.00 | 0.00 | 0.00 | 98 | 1016.9 |
| 20260507100011 | 13 | 294 | 0.0 | 0.0 | 0.00 | 0.00 | 0.00 | 98 | 1017.3 |
| 20260507095509 | 13 | 293 | 0.0 | 0.0 | 0.00 | 0.00 | 0.00 | 98 | 1016.9 |
| 20260507095005 | 14 | 293 | 0.0 | 0.0 | 0.00 | 0.00 | 0.00 | 98 | 1016.9 |
| 20260507094502 | 14 | 293 | 0.0 | 0.0 | 0.00 | 0.00 | 0.00 | 98 | 1017.3 |
| 20260507093959 | 14 | 293 | 0.0 | 0.0 | 0.00 | 0.00 | 0.00 | 97 | 1017.3 |
| 20260507093456 | 14 | 293 | 0.0 | 0.0 | 0.00 | 0.00 | 0.00 | 97 | 1017.3 |
| 20260507092955 | 14 | 293 | 0.0 | 0.0 | 0.00 | 0.00 | 0.00 | 97 | 1017.3 |
| 20260507092451 | 14 | 293 | 0.0 | 0.0 | 0.00 | 0.00 | 0.00 | 97 | 1017.3 |
| 20260507091947 | 14 | 292 | 0.0 | 0.0 | 0.00 | 0.00 | 0.00 | 97 | 1017.3 |
| 20260507091444 | 14 | 292 | 0.0 | 0.0 | 0.00 | 0.00 | 0.00 | 97 | 1017.3 |
| 20260507090940 | 14 | 292 | 0.0 | 0.0 | 0.00 | 0.00 | 0.00 | 97 | 1017.3 |
| 20260507090436 | 15 | 290 | 0.0 | 0.0 | 0.00 | 0.00 | 0.00 | 97 | 1017.3 |
| 20260507085933 | 15 | 289 | 0.0 | 0.0 | 0.00 | 0.00 | 0.00 | 97 | 1017.6 |
| 20260507085430 | 15 | 287 | 0.0 | 0.0 | 0.00 | 0.00 | 0.00 | 97 | 1017.6 |
| 20260507084927 | 15 | 280 | 0.0 | 0.0 | 0.00 | 0.00 | 0.00 | 96 | 1017.6 |
| 20260507084424 | 15 | 271 | 0.0 | 0.0 | 0.00 | 0.00 | 0.00 | 96 | 1017.6 |
| 20260507083921 | 15 | 257 | 0.0 | 0.0 | 0.00 | 0.00 | 0.00 | 96 | 1017.6 |
| 20260507083417 | 15 | 252 | 0.0 | 0.0 | 0.00 | 0.00 | 0.00 | 96 | 1017.6 |
| 20260507082914 | 15 | 257 | 0.0 | 0.0 | 0.00 | 0.00 | 0.00 | 95 | 1017.6 |
| 20260507082409 | 15 | 255 | 0.0 | 0.0 | 0.00 | 0.00 | 0.00 | 95 | 1017.9 |
| 20260507081907 | 15 | 254 | 0.0 | 0.0 | 0.00 | 0.00 | 0.00 | 95 | 1017.9 |
| 20260507081403 | 15 | 252 | 0.0 | 0.0 | 0.00 | 0.00 | 0.00 | 94 | 1017.9 |
| 20260507080859 | 15 | 195 | 0.0 | 0.0 | 0.00 | 0.00 | 0.00 | 94 | 1017.9 |
| 20260507080356 | 15 | 233 | 0.0 | 0.0 | 0.00 | 0.00 | 0.00 | 94 | 1017.9 |
| 20260507075851 | 15 | 212 | 0.0 | 0.0 | 0.00 | 0.00 | 0.00 | 93 | 1017.6 |
| 20260507075347 | 15 | 244 | 0.0 | 0.0 | 0.00 | 0.00 | 0.00 | 93 | 1017.9 |
| 20260507074844 | 15 | 246 | 0.0 | 0.0 | 0.00 | 0.00 | 0.00 | 93 | 1017.9 |
| 20260507074341 | 15 | 208 | 0.0 | 0.0 | 0.00 | 0.00 | 0.00 | 93 | 1017.9 |
| 20260507073838 | 15 | 234 | 0.0 | 0.0 | 0.00 | 0.00 | 0.00 | 93 | 1017.9 |
| 20260507073335 | 15 | 177 | 0.0 | 0.0 | 0.00 | 0.00 | 0.00 | 93 | 1018.3 |
| 20260507072832 | 15 | 190 | 0.0 | 0.0 | 0.00 | 0.00 | 0.00 | 93 | 1018.3 |
| 20260507072330 | 15 | 247 | 0.0 | 0.0 | 0.00 | 0.00 | 0.00 | 94 | 1018.3 |
| 20260507071827 | 15 | 205 | 0.0 | 0.0 | 0.00 | 0.00 | 0.00 | 95 | 1018.3 |
| 20260507071324 | 15 | 216 | 0.0 | 0.0 | 0.00 | 0.00 | 0.00 | 95 | 1018.3 |
| 20260507070820 | 15 | 255 | 0.0 | 0.0 | 0.00 | 0.00 | 0.00 | 96 | 1018.3 |
| 20260507070318 | 15 | 236 | 0.0 | 0.0 | 0.00 | 0.00 | 0.00 | 96 | 1017.9 |
| 20260507065814 | 15 | 236 | 0.0 | 0.0 | 0.00 | 0.00 | 0.00 | 96 | 1018.3 |
| 20260507065311 | 15 | 248 | 0.0 | 0.0 | 0.00 | 0.00 | 0.00 | 96 | 1017.9 |
| 20260507064808 | 15 | 243 | 0.0 | 0.0 | 0.00 | 0.00 | 0.00 | 96 | 1017.9 |
| 20260507064307 | 15 | 267 | 0.0 | 0.0 | 0.00 | 0.00 | 0.00 | 96 | 1018.3 |
| 20260507063804 | 15 | 247 | 0.0 | 0.0 | 0.00 | 0.00 | 0.00 | 96 | 1018.3 |
| 20260507063301 | 15 | 242 | 0.0 | 0.0 | 0.00 | 0.00 | 0.00 | 96 | 1018.3 |
| 20260507062757 | 15 | 231 | 0.0 | 0.0 | 0.00 | 0.00 | 0.00 | 96 | 1018.3 |
| 20260507062255 | 15 | 240 | 0.0 | 0.0 | 0.00 | 0.00 | 0.00 | 96 | 1018.3 |
| 20260507061753 | 15 | 263 | 0.0 | 0.0 | 0.00 | 0.00 | 0.00 | 96 | 1018.3 |
| 20260507061250 | 15 | 258 | 0.0 | 0.0 | 0.00 | 0.00 | 0.00 | 96 | 1018.3 |
| 20260507060748 | 15 | 234 | 0.0 | 0.0 | 0.00 | 0.00 | 0.00 | 96 | 1018.3 |
| 20260507060244 | 15 | 260 | 0.0 | 0.0 | 0.00 | 0.00 | 0.00 | 96 | 1018.3 |
| 20260507055741 | 15 | 232 | 0.0 | 0.0 | 0.00 | 0.00 | 0.00 | 96 | 1018.3 |
| 20260507055236 | 15 | 250 | 0.0 | 0.0 | 0.00 | 0.00 | 0.00 | 95 | 1018.3 |
| 20260507054733 | 15 | 216 | 0.0 | 0.0 | 0.00 | 0.00 | 0.00 | 95 | 1018.3 |
| 20260507054230 | 15 | 253 | 0.0 | 0.0 | 0.00 | 0.00 | 0.00 | 95 | 1018.3 |
| 20260507053727 | 15 | 221 | 8.0 | 12.9 | 0.00 | 0.00 | 0.00 | 95 | 1018.3 |
| 20260507053225 | 15 | 244 | 0.0 | 0.0 | 0.00 | 0.00 | 0.00 | 94 | 1018.3 |
| 20260507052724 | 15 | 263 | 0.0 | 1.6 | 0.00 | 0.00 | 0.00 | 94 | 1018.3 |
| 20260507052219 | 15 | 236 | 0.0 | 0.0 | 0.00 | 0.00 | 0.00 | 93 | 1018.3 |
| 20260507051718 | 15 | 213 | 0.0 | 0.0 | 0.00 | 0.00 | 0.00 | 93 | 1018.3 |
| 20260507051214 | 15 | 184 | 0.0 | 0.0 | 0.00 | 0.00 | 0.00 | 93 | 1018.3 |
| 20260507050711 | 15 | 196 | 0.0 | 0.0 | 0.00 | 0.00 | 0.00 | 92 | 1018.3 |
| 20260507050208 | 15 | 238 | 0.0 | 0.0 | 0.00 | 0.00 | 0.00 | 92 | 1018.3 |
| 20260507045705 | 15 | 243 | 0.0 | 0.0 | 0.00 | 0.00 | 0.00 | 93 | 1018.3 |
| 20260507045201 | 15 | 138 | 0.0 | 0.0 | 0.00 | 0.00 | 0.00 | 93 | 1017.9 |
| 20260507044658 | 15 | 149 | 0.0 | 0.0 | 0.00 | 0.00 | 0.00 | 93 | 1018.3 |
| 20260507044154 | 15 | 229 | 0.0 | 0.0 | 0.00 | 0.00 | 0.00 | 93 | 1018.3 |
| 20260507043651 | 15 | 187 | 0.0 | 0.0 | 0.00 | 0.00 | 0.00 | 93 | 1018.3 |
| 20260507043148 | 15 | 160 | 0.0 | 0.0 | 0.00 | 0.00 | 0.00 | 93 | 1018.3 |
| 20260507042644 | 16 | 248 | 0.0 | 0.0 | 0.00 | 0.00 | 0.00 | 93 | 1018.3 |
| 20260507042139 | 16 | 223 | 0.0 | 0.0 | 0.00 | 0.00 | 0.00 | 93 | 1018.3 |
| 20260507041636 | 16 | 233 | 0.0 | 0.0 | 0.00 | 0.00 | 0.00 | 93 | 1017.9 |
| 20260507041127 | 16 | 178 | 0.0 | 0.0 | 0.00 | 0.00 | 0.00 | 93 | 1018.3 |
| 20260507040624 | 16 | 160 | 0.0 | 0.0 | 0.00 | 0.00 | 0.00 | 92 | 1017.9 |
| 20260507040121 | 16 | 272 | 0.0 | 0.0 | 0.00 | 0.00 | 0.00 | 92 | 1017.9 |
| 20260507035616 | 16 | 261 | 0.0 | 0.0 | 0.00 | 0.00 | 0.00 | 92 | 1017.9 |
| 20260507035113 | 16 | 233 | 0.0 | 0.0 | 0.00 | 0.00 | 0.00 | 92 | 1017.6 |
| 20260507034610 | 16 | 235 | 0.0 | 0.0 | 0.00 | 0.00 | 0.00 | 91 | 1017.6 |
| 20260507034107 | 16 | 202 | 0.0 | 0.0 | 0.00 | 0.00 | 0.00 | 92 | 1017.6 |
| 20260507033606 | 16 | 246 | 8.0 | 9.7 | 0.00 | 0.00 | 0.00 | 92 | 1017.6 |
| 20260507033102 | 16 | 264 | 11.3 | 12.9 | 0.00 | 0.00 | 0.00 | 91 | 1017.6 |
| 20260507032600 | 16 | 218 | 0.0 | 0.0 | 0.00 | 0.00 | 0.00 | 91 | 1017.6 |
| 20260507032056 | 16 | 253 | 0.0 | 0.0 | 0.00 | 0.00 | 0.00 | 92 | 1017.6 |
| 20260507031552 | 16 | 223 | 0.0 | 1.6 | 0.00 | 0.00 | 0.00 | 92 | 1017.6 |
| 20260507031049 | 16 | 242 | 0.0 | 0.0 | 0.00 | 0.00 | 0.00 | 92 | 1017.3 |
| 20260507030546 | 16 | 179 | 0.0 | 0.0 | 0.00 | 0.00 | 0.00 | 92 | 1017.3 |
| 20260507030044 | 16 | 209 | 0.0 | 0.0 | 0.00 | 0.00 | 0.00 | 91 | 1017.3 |
| 20260507025541 | 16 | 215 | 0.0 | 0.0 | 0.00 | 0.00 | 0.00 | 91 | 1017.3 |
| 20260507025038 | 16 | 218 | 8.0 | 11.3 | 0.00 | 0.00 | 0.00 | 91 | 1017.3 |
| 20260507024536 | 16 | 230 | 6.4 | 11.3 | 0.00 | 0.00 | 0.00 | 90 | 1017.3 |
| 20260507024032 | 16 | 269 | 0.0 | 0.0 | 0.00 | 0.00 | 0.00 | 89 | 1017.3 |
| 20260507023528 | 16 | 234 | 8.0 | 11.3 | 0.00 | 0.00 | 0.00 | 89 | 1016.9 |
| 20260507023026 | 16 | 252 | 11.3 | 16.1 | 0.00 | 0.00 | 0.00 | 87 | 1017.3 |
| 20260507022522 | 17 | 234 | 9.7 | 14.5 | 0.00 | 0.00 | 0.00 | 86 | 1017.3 |
| 20260507022012 | 17 | 231 | 0.0 | 0.0 | 0.00 | 0.00 | 0.00 | 85 | 1016.9 |
| 20260507021508 | 17 | 240 | 0.0 | 0.0 | 0.00 | 0.00 | 0.00 | 84 | 1016.9 |
| 20260507021005 | 17 | 258 | 0.0 | 0.0 | 0.00 | 0.00 | 0.00 | 85 | 1016.9 |
| 20260507020503 | 17 | 273 | 8.0 | 11.3 | 0.00 | 0.00 | 0.00 | 86 | 1016.9 |
| 20260507015959 | 17 | 252 | 0.0 | 0.0 | 0.00 | 0.00 | 0.00 | 87 | 1016.9 |
| 20260507015458 | 17 | 255 | 11.3 | 12.9 | 0.00 | 0.00 | 0.00 | 86 | 1016.9 |
| 20260507014955 | 17 | 244 | 6.4 | 9.7 | 0.00 | 0.00 | 0.00 | 85 | 1016.9 |
| 20260507014451 | 17 | 216 | 11.3 | 14.5 | 0.00 | 0.00 | 0.00 | 85 | 1016.9 |
| 20260507013947 | 17 | 217 | 3.2 | 8.0 | 0.00 | 0.00 | 0.00 | 85 | 1016.6 |